Time;durP1;ratioP1;P1;durP2;ratioP2;P2;SDS_P1;SDS_P2;PMS_P1;PMS_P2;Temp;Humidity;BMP_temperature;BMP_pressure;BME280_temperature;BME280_humidity;BME280_pressure;Samples;Min_cycle;Max_cycle;Signal;HPM_P1;HPM_P2
2022/12/12 00:00:54;;;;;;;18.80;14.80;;;;;;;-4.31;96.35;98085.37;423404;1271;145497;-65
2022/12/12 00:11:08;;;;;;;22.90;16.40;;;;;;;-4.24;96.40;98079.71;420213;1272;141706;-66
2022/12/12 00:21:17;;;;;;;22.70;16.60;;;;;;;-4.21;96.70;98072.44;421498;1272;143313;-66
2022/12/12 00:31:23;;;;;;;19.80;15.30;;;;;;;-4.15;96.75;98063.91;424136;1272;143081;-64
2022/12/12 00:41:29;;;;;;;20.70;14.30;;;;;;;-4.12;96.84;98063.80;423326;1272;145793;-65
2022/12/12 00:51:35;;;;;;;17.10;14.30;;;;;;;-4.05;97.08;98065.33;426099;1272;143441;-65
2022/12/12 01:01:41;;;;;;;18.00;13.60;;;;;;;-3.98;97.33;98058.46;424133;1272;143610;-65
2022/12/12 01:11:46;;;;;;;14.30;11.50;;;;;;;-3.94;97.40;98057.49;428388;1272;143165;-66
2022/12/12 01:21:52;;;;;;;16.20;12.00;;;;;;;-3.86;97.63;98057.09;420315;1275;143243;-65
2022/12/12 01:31:57;;;;;;;14.00;10.00;;;;;;;-3.83;97.62;98046.90;421230;1273;142552;-66
2022/12/12 01:42:03;;;;;;;15.40;11.10;;;;;;;-3.80;97.82;98045.77;422278;1275;142893;-65
2022/12/12 01:52:12;;;;;;;14.60;11.50;;;;;;;-3.77;97.83;98047.06;420735;1271;144813;-66
2022/12/12 02:02:18;;;;;;;17.10;12.70;;;;;;;-3.72;97.97;98054.95;422895;1275;144184;-64
2022/12/12 02:12:22;;;;;;;;;;;;;;;-3.66;98.13;98049.11;422082;1274;143029;-65
2022/12/12 02:22:46;;;;;;;14.90;11.50;;;;;;;-3.60;98.21;98050.15;420196;1272;185330;-66
2022/12/12 02:33:27;;;;;;;17.00;12.30;;;;;;;-3.57;98.19;98052.62;420243;1272;143391;-65
2022/12/12 02:43:39;;;;;;;15.80;11.60;;;;;;;-3.54;98.31;98047.88;423160;1272;210817;-64
2022/12/12 02:53:44;;;;;;;15.90;12.70;;;;;;;-3.50;98.27;98046.06;424406;1282;142309;-64
2022/12/12 03:14:27;;;;;;;18.00;12.20;;;;;;;-3.41;98.62;98044.92;423248;1279;143076;-64
2022/12/12 03:24:40;;;;;;;19.00;13.20;;;;;;;-3.37;98.54;98040.85;420851;1279;143933;-64
2022/12/12 03:34:50;;;;;;;21.70;13.40;;;;;;;-3.33;98.81;98039.70;420699;1274;141661;-64
2022/12/12 03:45:00;;;;;;;19.50;11.70;;;;;;;-3.29;98.84;98040.58;422035;1274;144185;-64
2022/12/12 03:55:11;;;;;;;20.90;13.10;;;;;;;-3.26;98.80;98036.91;420577;1275;142333;-65
2022/12/12 04:06:25;;;;;;;16.80;11.80;;;;;;;-3.25;98.94;98028.32;423826;1275;143273;-65
2022/12/12 04:16:14;;;;;;;17.90;13.00;;;;;;;-3.22;99.03;98022.77;422146;1275;211584;-64
2022/12/12 04:26:39;;;;;;;16.90;12.60;;;;;;;-3.20;99.10;98020.62;421824;1278;144131;-64
2022/12/12 04:36:47;;;;;;;14.60;11.80;;;;;;;-3.18;99.25;98020.05;422088;1281;143376;-64
2022/12/12 04:46:56;;;;;;;15.10;11.90;;;;;;;-3.16;99.39;98020.85;422244;1279;143455;-64
2022/12/12 04:57:07;;;;;;;14.30;11.10;;;;;;;-3.14;99.26;98017.35;423677;1275;142929;-64
2022/12/12 05:07:18;;;;;;;16.90;12.50;;;;;;;-3.15;99.35;98020.48;422094;1275;143671;-64
2022/12/12 05:17:30;;;;;;;15.90;11.10;;;;;;;-3.13;99.40;98017.84;423503;1279;143304;-64
2022/12/12 05:27:36;;;;;;;15.20;11.90;;;;;;;-3.15;99.38;98015.35;424974;1272;144230;-63
2022/12/12 05:37:42;;;;;;;15.30;11.70;;;;;;;-3.13;99.29;98016.97;420131;1279;142825;-64
2022/12/12 05:47:56;;;;;;;14.90;11.90;;;;;;;-3.14;99.21;98020.26;424991;1279;145173;-64
2022/12/12 05:58:02;;;;;;;15.70;11.30;;;;;;;-3.14;99.38;98017.18;427467;1272;142178;-64
2022/12/12 06:08:08;;;;;;;13.80;10.90;;;;;;;-3.13;99.31;98013.73;424020;1271;142239;-65
2022/12/12 06:18:13;;;;;;;13.20;10.90;;;;;;;-3.15;99.36;98012.08;426947;1279;143166;-65
2022/12/12 06:28:19;;;;;;;14.90;11.20;;;;;;;-3.15;99.31;98018.08;427785;1279;200703;-66
2022/12/12 06:38:25;;;;;;;12.60;10.70;;;;;;;-3.14;99.26;98024.87;436951;1281;142880;-64
2022/12/12 06:48:31;;;;;;;11.90;9.30;;;;;;;-3.07;99.48;98025.69;436090;1278;144416;-63
2022/12/12 06:58:35;;;;;;;;;;;;;;;-3.02;99.36;98024.34;436842;1281;142740;-64
2022/12/12 07:08:41;;;;;;;14.50;9.30;;;;;;;-2.97;99.62;98027.38;437117;1282;129216;-64
2022/12/12 07:18:47;;;;;;;12.40;9.90;;;;;;;-2.88;99.47;98034.46;436186;1280;144025;-65
2022/12/12 07:28:53;;;;;;;11.30;8.80;;;;;;;-2.78;99.74;98043.55;429258;1278;142866;-64
2022/12/12 07:38:59;;;;;;;11.10;9.40;;;;;;;-2.68;99.69;98044.06;436176;1280;153072;-65
2022/12/12 07:49:04;;;;;;;11.60;8.90;;;;;;;-2.59;99.68;98046.98;436925;1280;144352;-64
2022/12/12 07:59:10;;;;;;;12.00;9.80;;;;;;;-2.47;99.60;98049.33;436907;1288;142679;-65
2022/12/12 08:09:16;;;;;;;11.80;8.60;;;;;;;-2.32;99.75;98053.09;436245;1277;142239;-65
2022/12/12 08:19:22;;;;;;;10.00;8.60;;;;;;;-2.22;99.53;98060.59;436978;1281;143419;-65
2022/12/12 08:29:27;;;;;;;8.60;8.00;;;;;;;-2.06;99.67;98063.97;433066;1285;142571;-65
2022/12/12 08:39:33;;;;;;;12.30;9.20;;;;;;;-2.02;99.55;98065.86;436244;1281;142950;-65
2022/12/12 08:49:38;;;;;;;10.90;7.80;;;;;;;-1.89;99.62;98073.81;436922;1280;143046;-64
2022/12/12 08:59:44;;;;;;;10.30;8.80;;;;;;;-1.75;99.53;98075.86;436944;1281;143808;-65
2022/12/12 09:09:50;;;;;;;14.10;9.70;;;;;;;-1.58;99.21;98078.98;436200;1280;143170;-65
2022/12/12 09:19:55;;;;;;;10.90;7.30;;;;;;;-1.50;98.75;98075.09;437050;1277;146672;-65
2022/12/12 09:30:01;;;;;;;9.90;7.50;;;;;;;-1.38;98.66;98075.28;436207;1281;142903;-65
2022/12/12 09:40:10;;;;;;;11.10;7.40;;;;;;;-1.27;98.39;98079.13;436988;1281;142737;-64
2022/12/12 09:50:21;;;;;;;9.50;6.90;;;;;;;-1.20;98.12;98071.13;436987;1279;143309;-64
2022/12/12 10:00:32;;;;;;;6.70;5.90;;;;;;;-1.11;98.05;98078.36;436213;1284;142613;-65
2022/12/12 10:10:41;;;;;;;10.20;7.30;;;;;;;-1.10;97.50;98078.67;436955;1280;142203;-64
2022/12/12 10:20:51;;;;;;;7.80;7.10;;;;;;;-1.10;97.72;98081.23;436990;1285;141974;-64
2022/12/12 10:31:32;;;;;;;11.60;9.10;;;;;;;-1.16;97.59;98083.33;436505;1285;199076;-65
2022/12/12 10:41:44;;;;;;;9.20;7.10;;;;;;;-0.92;97.40;98077.23;436981;1288;143735;-65
2022/12/12 10:51:51;;;;;;;7.60;5.50;;;;;;;-0.76;97.12;98076.94;436215;1280;142577;-65
2022/12/12 11:02:00;;;;;;;7.60;6.30;;;;;;;-0.67;96.69;98075.14;436953;1286;199750;-65
2022/12/12 11:12:16;;;;;;;9.20;7.00;;;;;;;-0.32;96.88;98072.12;436198;1282;142880;-65
2022/12/12 11:22:22;;;;;;;6.90;6.20;;;;;;;-0.10;95.97;98070.81;436363;1279;142958;-65
2022/12/12 11:32:32;;;;;;;10.50;6.40;;;;;;;-0.24;95.45;98067.15;436930;1281;142911;-65
2022/12/12 11:42:38;;;;;;;7.10;5.40;;;;;;;-0.31;95.00;98072.77;436196;1288;143017;-65
2022/12/12 11:52:47;;;;;;;8.40;5.70;;;;;;;-0.40;95.05;98085.20;436919;1282;142643;-66
2022/12/12 12:13:43;;;;;;;8.20;5.10;;;;;;;-0.41;95.21;98087.27;421418;1321;601118;-65
2022/12/12 12:23:57;;;;;;;7.20;6.50;;;;;;;-0.42;95.07;98093.67;429727;1298;141453;-65
2022/12/12 12:34:16;;;;;;;7.90;5.60;;;;;;;-0.39;95.22;98101.15;427776;1299;142551;-66
2022/12/12 12:44:36;;;;;;;12.40;5.80;;;;;;;-0.44;95.09;98101.86;430990;1298;142021;-64
2022/12/12 12:54:48;;;;;;;6.20;5.50;;;;;;;-0.49;94.95;98101.90;431757;1293;142149;-65
2022/12/12 13:05:05;;;;;;;8.10;5.70;;;;;;;-0.56;94.95;98102.21;432485;1292;141966;-65
2022/12/12 13:15:19;;;;;;;8.50;5.40;;;;;;;-0.60;94.75;98108.04;431747;1295;141527;-66
2022/12/12 13:25:35;;;;;;;9.30;5.20;;;;;;;-0.62;94.76;98114.64;427373;1301;141371;-65
2022/12/12 13:35:45;;;;;;;8.50;6.40;;;;;;;-0.69;94.80;98133.33;432354;1288;143237;-66
2022/12/12 13:45:52;;;;;;;6.90;4.90;;;;;;;-0.75;94.93;98145.27;432933;1292;141444;-65
2022/12/12 13:56:40;;;;;;;8.70;6.20;;;;;;;-0.88;94.95;98151.46;433634;1298;142604;-66
2022/12/12 14:06:57;;;;;;;8.10;5.50;;;;;;;-0.95;95.29;98152.77;432881;1293;142212;-65
2022/12/12 14:17:03;;;;;;;9.00;6.70;;;;;;;-1.00;95.38;98162.08;433585;1292;143124;-66
2022/12/12 14:27:10;;;;;;;8.60;6.90;;;;;;;-1.08;95.58;98165.45;434417;1286;143161;-65
2022/12/12 14:37:30;;;;;;;;;;;;;;;-1.16;95.49;98170.42;435118;1286;141819;-65
2022/12/12 14:47:37;;;;;;;10.20;7.90;;;;;;;-1.22;95.85;98173.59;435432;1291;128769;-65
2022/12/12 14:57:45;;;;;;;10.60;6.60;;;;;;;-1.26;96.01;98180.60;434366;1288;196103;-65
2022/12/12 15:07:59;;;;;;;15.30;9.10;;;;;;;-1.31;96.49;98190.58;435689;1282;141619;-65
2022/12/12 15:18:25;;;;;;;10.50;7.30;;;;;;;-1.35;96.77;98197.05;434985;1282;143753;-65
2022/12/12 15:28:52;;;;;;;10.20;7.50;;;;;;;-1.37;97.09;98201.60;435487;1283;145332;-66
2022/12/12 15:39:16;;;;;;;11.50;7.00;;;;;;;-1.40;97.27;98202.41;434803;1285;144066;-66
2022/12/12 15:49:39;;;;;;;9.20;7.20;;;;;;;-1.42;97.62;98213.97;435511;1283;141484;-64
2022/12/12 15:59:45;;;;;;;8.50;6.10;;;;;;;-1.46;97.64;98214.30;427606;1278;145075;-66
2022/12/12 16:10:03;;;;;;;9.90;7.40;;;;;;;-1.47;97.97;98221.88;426164;1284;142332;-66
2022/12/12 16:20:13;;;;;;;9.90;6.70;;;;;;;-1.50;97.83;98226.29;435175;1286;141851;-65
2022/12/12 16:30:19;;;;;;;8.40;6.50;;;;;;;-1.52;97.92;98232.55;434645;1286;143205;-66
2022/12/12 16:40:24;;;;;;;8.60;6.50;;;;;;;-1.53;98.15;98239.60;435616;1283;142153;-65
2022/12/12 16:50:30;;;;;;;6.80;5.30;;;;;;;-1.57;97.85;98244.21;435700;1285;144518;-64
2022/12/12 17:00:36;;;;;;;6.40;5.20;;;;;;;-1.58;98.06;98262.61;434695;1283;143406;-65
2022/12/12 17:10:43;;;;;;;7.20;4.40;;;;;;;-1.57;98.32;98270.31;435552;1284;141955;-65
2022/12/12 17:20:49;;;;;;;6.70;5.70;;;;;;;-1.56;98.49;98273.36;435565;1290;142508;-64
2022/12/12 17:30:55;;;;;;;7.10;5.40;;;;;;;-1.58;98.61;98285.45;431620;1283;198459;-65
2022/12/12 17:41:07;;;;;;;8.90;7.30;;;;;;;-1.58;98.41;98289.39;428310;1279;196736;-66
2022/12/12 17:51:15;;;;;;;7.30;6.20;;;;;;;-1.59;98.41;98298.36;434763;1283;142968;-66
2022/12/12 18:01:23;;;;;;;7.50;5.40;;;;;;;-1.60;98.66;98310.22;435442;1283;141413;-66
2022/12/12 18:11:31;;;;;;;6.50;5.20;;;;;;;-1.58;98.55;98314.96;435459;1277;141388;-66
2022/12/12 18:21:38;;;;;;;7.30;5.20;;;;;;;-1.57;98.59;98321.27;422775;1276;144815;-65
2022/12/12 18:32:04;;;;;;;9.20;6.40;;;;;;;-1.60;98.41;98329.45;435697;1291;151842;-66
2022/12/12 18:42:10;;;;;;;8.40;5.60;;;;;;;-1.65;98.04;98335.11;434829;1285;143437;-66
2022/12/12 18:52:16;;;;;;;7.10;6.00;;;;;;;-1.66;98.07;98345.08;435753;1276;141635;-67
2022/12/12 19:02:21;;;;;;;8.20;6.10;;;;;;;-1.66;98.00;98360.73;428985;1282;141793;-65
2022/12/12 19:12:27;;;;;;;12.40;7.20;;;;;;;-1.69;97.87;98379.83;434893;1284;142936;-66
2022/12/12 19:22:33;;;;;;;9.90;7.90;;;;;;;-1.73;98.36;98388.55;431524;1282;142003;-65
2022/12/12 19:32:54;;;;;;;8.80;7.80;;;;;;;-1.72;97.92;98395.56;435600;1278;143803;-66
2022/12/12 19:43:00;;;;;;;13.20;7.60;;;;;;;-1.71;98.14;98406.70;435275;1283;208230;-65
2022/12/12 19:53:05;;;;;;;8.30;7.30;;;;;;;-1.71;98.41;98415.60;428495;1276;141956;-65
2022/12/12 20:03:11;;;;;;;12.80;8.70;;;;;;;-1.72;98.60;98428.02;429783;1276;183735;-64
2022/12/12 20:13:16;;;;;;;10.90;8.30;;;;;;;-1.76;98.24;98442.54;435440;1276;142298;-65
2022/12/12 20:23:22;;;;;;;12.10;8.90;;;;;;;-1.72;98.71;98446.19;435257;1283;142867;-65
2022/12/12 20:33:28;;;;;;;11.60;9.00;;;;;;;-1.73;98.40;98452.74;434696;1283;142437;-65
2022/12/12 20:43:54;;;;;;;;;;;;;;;-1.74;98.31;98464.79;425881;1283;145207;-65
2022/12/12 20:54:02;;;;;;;13.40;9.60;;;;;;;-1.79;98.16;98468.38;434778;1283;128754;-64
2022/12/12 21:04:08;;;;;;;11.10;9.50;;;;;;;-1.85;98.30;98481.42;435280;1277;142792;-64
2022/12/12 21:14:14;;;;;;;12.70;10.10;;;;;;;-1.88;98.02;98494.73;435313;1282;143675;-64
2022/12/12 21:24:21;;;;;;;13.10;10.80;;;;;;;-1.95;98.11;98502.30;434629;1290;167419;-65
2022/12/12 21:34:27;;;;;;;12.50;9.80;;;;;;;-1.97;97.59;98515.41;430354;1277;142465;-64
2022/12/12 21:44:32;;;;;;;10.20;8.40;;;;;;;-2.00;97.55;98519.11;431755;1277;142948;-65
2022/12/12 21:54:38;;;;;;;12.00;9.20;;;;;;;-2.05;97.54;98525.26;434556;1285;144718;-65
2022/12/12 22:04:43;;;;;;;10.80;8.40;;;;;;;-2.09;97.20;98526.75;435347;1276;142583;-66
2022/12/12 22:14:49;;;;;;;12.50;9.80;;;;;;;-2.15;96.95;98535.14;435291;1283;143157;-66
2022/12/12 22:25:14;;;;;;;;;;;;;;;-2.20;97.16;98549.16;434886;1279;211398;-64
2022/12/12 22:35:20;;;;;;;12.80;9.20;;;;;;;-2.28;97.05;98559.69;428784;1277;127768;-65
2022/12/12 22:45:25;;;;;;;13.70;10.70;;;;;;;-2.38;96.82;98569.89;433650;1276;143410;-65
2022/12/12 22:55:33;;;;;;;12.20;9.40;;;;;;;-2.42;96.79;98579.27;435303;1276;145584;-65
2022/12/12 23:05:38;;;;;;;14.50;10.30;;;;;;;-2.43;96.71;98592.33;427026;1276;142250;-65
2022/12/12 23:15:44;;;;;;;11.80;9.00;;;;;;;-2.47;96.82;98605.30;434343;1284;144603;-66
2022/12/12 23:25:50;;;;;;;12.10;9.50;;;;;;;-2.50;96.98;98606.89;432356;1282;142685;-65
2022/12/12 23:35:55;;;;;;;12.10;9.40;;;;;;;-2.50;96.72;98606.21;435013;1280;142387;-66
2022/12/12 23:46:04;;;;;;;13.20;10.50;;;;;;;-2.52;96.75;98604.39;435444;1284;152738;-66
2022/12/12 23:56:09;;;;;;;10.80;9.10;;;;;;;-2.56;96.59;98608.26;435480;1284;142753;-66
